QFA2721 YMHB-YPAD
Flight info
| Callsign | QFA2721 |
|---|---|
| Flight time | 1h 47m |
| Altitude | 36000 |
| Route | DCT TASUM T234 BORTO H345 AD DCT |
| Aircraft | A321/M-SDE3FGHIRWY/LB1 |
Departure
| Time | 2026-04-28 07:16 |
|---|---|
| Airport | Hobart International Airport (YMHB) |
Arrival
| Time | 2026-04-28 09:04 |
|---|---|
| Airport | Adelaide International Airport (YPAD) |
| Time | Latitude | Longitude | Altitude | Speed | Heading |
|---|---|---|---|---|---|
| 2026-04-28 06:52 | -42.83774 | 147.50754 | 26 ft | 0 kts | 261° |
| 2026-04-28 07:07 | -42.83772 | 147.50766 | 25 ft | 0 kts | 261° |
| 2026-04-28 07:07 | -42.83769 | 147.50783 | 25 ft | 2 kts | 231° |
| 2026-04-28 07:07 | -42.83757 | 147.50795 | 25 ft | 2 kts | 198° |
| 2026-04-28 07:07 | -42.83742 | 147.50797 | 25 ft | 2 kts | 163° |
| 2026-04-28 07:08 | -42.83735 | 147.50794 | 25 ft | 1 kts | 147° |
| 2026-04-28 07:08 | -42.83731 | 147.50790 | 25 ft | 0 kts | 151° |
| 2026-04-28 07:10 | -42.83735 | 147.50792 | 25 ft | 1 kts | 152° |
| 2026-04-28 07:10 | -42.83748 | 147.50803 | 25 ft | 3 kts | 152° |
| 2026-04-28 07:11 | -42.83793 | 147.50835 | 25 ft | 10 kts | 152° |
| 2026-04-28 07:11 | -42.83868 | 147.50913 | 26 ft | 15 kts | 138° |
| 2026-04-28 07:11 | -42.83946 | 147.51028 | 27 ft | 16 kts | 115° |
| 2026-04-28 07:11 | -42.83892 | 147.51157 | 25 ft | 16 kts | 45° |
| 2026-04-28 07:12 | -42.83807 | 147.51273 | 23 ft | 18 kts | 44° |
| 2026-04-28 07:12 | -42.83793 | 147.51404 | 22 ft | 16 kts | 132° |
| 2026-04-28 07:12 | -42.83868 | 147.51520 | 23 ft | 15 kts | 133° |
| 2026-04-28 07:12 | -42.83941 | 147.51621 | 24 ft | 14 kts | 134° |
| 2026-04-28 07:13 | -42.84011 | 147.51717 | 25 ft | 14 kts | 134° |
| 2026-04-28 07:13 | -42.84085 | 147.51817 | 25 ft | 15 kts | 134° |
| 2026-04-28 07:13 | -42.84164 | 147.51926 | 25 ft | 16 kts | 135° |
| 2026-04-28 07:13 | -42.84245 | 147.52033 | 27 ft | 16 kts | 134° |
| 2026-04-28 07:14 | -42.84324 | 147.52141 | 28 ft | 15 kts | 135° |
| 2026-04-28 07:14 | -42.84405 | 147.52249 | 28 ft | 16 kts | 135° |
| 2026-04-28 07:14 | -42.84499 | 147.52333 | 29 ft | 16 kts | 171° |
| 2026-04-28 07:14 | -42.84561 | 147.52416 | 30 ft | 14 kts | 62° |
| 2026-04-28 07:15 | -42.84489 | 147.52367 | 28 ft | 13 kts | 310° |
| 2026-04-28 07:15 | -42.84426 | 147.52278 | 28 ft | 14 kts | 315° |
| 2026-04-28 07:15 | -42.84178 | 147.51944 | 26 ft | 89 kts | 314° |
| 2026-04-28 07:15 | -42.83570 | 147.51117 | 22 ft | 157 kts | 315° |
| 2026-04-28 07:16 | -42.82695 | 147.49940 | 330 ft | 187 kts | 315° |
| 2026-04-28 07:16 | -42.81793 | 147.48730 | 1166 ft | 182 kts | 315° |
| 2026-04-28 07:16 | -42.80949 | 147.47580 | 2083 ft | 168 kts | 315° |
| 2026-04-28 07:16 | -42.80107 | 147.46433 | 2447 ft | 177 kts | 315° |
| 2026-04-28 07:17 | -42.79204 | 147.45201 | 2753 ft | 190 kts | 315° |
| 2026-04-28 07:17 | -42.78249 | 147.43890 | 3049 ft | 206 kts | 315° |
| 2026-04-28 07:17 | -42.77199 | 147.42448 | 3329 ft | 224 kts | 315° |
| 2026-04-28 07:17 | -42.76046 | 147.40866 | 3659 ft | 245 kts | 315° |
| 2026-04-28 07:18 | -42.74800 | 147.39159 | 4106 ft | 261 kts | 315° |
| 2026-04-28 07:18 | -42.73513 | 147.37395 | 4846 ft | 266 kts | 315° |
| 2026-04-28 07:18 | -42.72219 | 147.35623 | 5701 ft | 267 kts | 314° |
| 2026-04-28 07:18 | -42.70919 | 147.33846 | 6555 ft | 268 kts | 315° |
| 2026-04-28 07:19 | -42.69591 | 147.32031 | 7227 ft | 278 kts | 315° |
| 2026-04-28 07:19 | -42.68185 | 147.30115 | 7699 ft | 296 kts | 313° |
| 2026-04-28 07:19 | -42.66719 | 147.28114 | 8437 ft | 304 kts | 313° |
| 2026-04-28 07:19 | -42.65214 | 147.26054 | 9337 ft | 307 kts | 313° |
| 2026-04-28 07:20 | -42.63711 | 147.24002 | 10178 ft | 310 kts | 313° |
| 2026-04-28 07:20 | -42.62201 | 147.21942 | 10972 ft | 314 kts | 313° |
| 2026-04-28 07:20 | -42.60660 | 147.19842 | 11688 ft | 320 kts | 312° |
| 2026-04-28 07:20 | -42.59058 | 147.17659 | 12059 ft | 336 kts | 312° |
| 2026-04-28 07:21 | -42.57393 | 147.15384 | 12632 ft | 344 kts | 312° |
| 2026-04-28 07:21 | -42.55732 | 147.13051 | 13404 ft | 346 kts | 311° |
| 2026-04-28 07:21 | -42.54062 | 147.10686 | 14163 ft | 347 kts | 311° |
| 2026-04-28 07:22 | -42.50716 | 147.05954 | 15650 ft | 350 kts | 310° |
| 2026-04-28 07:22 | -42.49028 | 147.03572 | 16378 ft | 351 kts | 310° |
| 2026-04-28 07:22 | -42.47333 | 147.01239 | 17073 ft | 353 kts | 312° |
| 2026-04-28 07:22 | -42.45513 | 146.98972 | 17755 ft | 356 kts | 314° |
| 2026-04-28 07:23 | -42.43664 | 146.96716 | 18419 ft | 357 kts | 313° |
| 2026-04-28 07:23 | -42.41819 | 146.94467 | 19053 ft | 359 kts | 313° |
| 2026-04-28 07:23 | -42.39923 | 146.92160 | 19680 ft | 361 kts | 313° |
| 2026-04-28 07:23 | -42.37980 | 146.89795 | 20295 ft | 363 kts | 313° |
| 2026-04-28 07:24 | -42.36052 | 146.87454 | 20890 ft | 364 kts | 313° |
| 2026-04-28 07:24 | -42.34104 | 146.85089 | 21456 ft | 367 kts | 313° |
| 2026-04-28 07:24 | -42.32162 | 146.82735 | 21982 ft | 369 kts | 313° |
| 2026-04-28 07:24 | -42.30178 | 146.80328 | 22512 ft | 371 kts | 313° |
| 2026-04-28 07:25 | -42.28205 | 146.77942 | 23024 ft | 373 kts | 313° |
| 2026-04-28 07:25 | -42.26234 | 146.75558 | 23509 ft | 376 kts | 313° |
| 2026-04-28 07:25 | -42.24228 | 146.73135 | 23977 ft | 378 kts | 313° |
| 2026-04-28 07:25 | -42.22210 | 146.70699 | 24434 ft | 380 kts | 313° |
| 2026-04-28 07:26 | -42.20142 | 146.68205 | 24881 ft | 383 kts | 313° |
| 2026-04-28 07:26 | -42.18016 | 146.65643 | 25325 ft | 385 kts | 313° |
| 2026-04-28 07:26 | -42.15922 | 146.63123 | 25754 ft | 387 kts | 313° |
| 2026-04-28 07:26 | -42.13755 | 146.60516 | 26183 ft | 389 kts | 313° |
| 2026-04-28 07:27 | -42.11629 | 146.57964 | 26582 ft | 391 kts | 313° |
| 2026-04-28 07:27 | -42.09457 | 146.55357 | 26973 ft | 394 kts | 313° |
| 2026-04-28 07:27 | -42.07232 | 146.52689 | 27323 ft | 397 kts | 313° |
| 2026-04-28 07:27 | -42.04982 | 146.49991 | 27482 ft | 404 kts | 313° |
| 2026-04-28 07:28 | -42.02702 | 146.47261 | 27819 ft | 407 kts | 313° |
| 2026-04-28 07:28 | -42.00488 | 146.44618 | 28311 ft | 405 kts | 313° |
| 2026-04-28 07:28 | -41.98276 | 146.41977 | 28817 ft | 403 kts | 313° |
| 2026-04-28 07:28 | -41.95985 | 146.39246 | 29312 ft | 401 kts | 313° |
| 2026-04-28 07:29 | -41.93729 | 146.36559 | 29765 ft | 400 kts | 313° |
| 2026-04-28 07:29 | -41.91554 | 146.33969 | 30209 ft | 398 kts | 314° |
| 2026-04-28 07:29 | -41.89445 | 146.31459 | 30665 ft | 397 kts | 314° |
| 2026-04-28 07:29 | -41.87337 | 146.28954 | 31096 ft | 396 kts | 314° |
| 2026-04-28 07:30 | -41.85260 | 146.26491 | 31506 ft | 395 kts | 314° |
| 2026-04-28 07:30 | -41.83165 | 146.24008 | 31935 ft | 393 kts | 313° |
| 2026-04-28 07:30 | -41.81097 | 146.21561 | 32350 ft | 392 kts | 313° |
| 2026-04-28 07:30 | -41.78997 | 146.19075 | 32772 ft | 390 kts | 313° |
| 2026-04-28 07:31 | -41.76985 | 146.16698 | 33156 ft | 389 kts | 313° |
| 2026-04-28 07:31 | -41.74900 | 146.14233 | 33538 ft | 388 kts | 313° |
| 2026-04-28 07:31 | -41.72870 | 146.11839 | 33904 ft | 387 kts | 313° |
| 2026-04-28 07:31 | -41.70857 | 146.09465 | 34275 ft | 385 kts | 313° |
| 2026-04-28 07:32 | -41.68850 | 146.07100 | 34604 ft | 385 kts | 313° |
| 2026-04-28 07:32 | -41.66824 | 146.04715 | 34861 ft | 386 kts | 313° |
| 2026-04-28 07:32 | -41.64629 | 146.02130 | 35123 ft | 387 kts | 313° |
| 2026-04-28 07:32 | -41.62440 | 145.99558 | 35395 ft | 388 kts | 313° |
| 2026-04-28 07:33 | -41.60207 | 145.96936 | 35662 ft | 389 kts | 313° |
| 2026-04-28 07:33 | -41.57986 | 145.94331 | 35896 ft | 390 kts | 313° |
| 2026-04-28 07:33 | -41.55732 | 145.91690 | 36125 ft | 391 kts | 313° |
| 2026-04-28 07:33 | -41.53601 | 145.89195 | 36190 ft | 393 kts | 313° |
| 2026-04-28 07:34 | -41.49487 | 145.84387 | 36197 ft | 393 kts | 313° |
| 2026-04-28 07:34 | -41.45334 | 145.79541 | 36199 ft | 392 kts | 314° |
| 2026-04-28 07:35 | -41.41075 | 145.74587 | 36199 ft | 393 kts | 314° |
| 2026-04-28 07:35 | -41.36943 | 145.69781 | 36198 ft | 392 kts | 314° |
| 2026-04-28 07:36 | -41.32666 | 145.64816 | 36199 ft | 392 kts | 314° |
| 2026-04-28 07:36 | -41.28415 | 145.59892 | 36200 ft | 392 kts | 314° |
| 2026-04-28 07:37 | -41.24147 | 145.54956 | 36199 ft | 392 kts | 314° |
| 2026-04-28 07:37 | -41.20003 | 145.50174 | 36199 ft | 392 kts | 313° |
| 2026-04-28 07:38 | -41.15674 | 145.45184 | 36198 ft | 393 kts | 314° |
| 2026-04-28 07:38 | -41.11395 | 145.40262 | 36199 ft | 393 kts | 314° |
| 2026-04-28 07:39 | -41.07084 | 145.35315 | 36201 ft | 390 kts | 313° |
| 2026-04-28 07:39 | -41.02817 | 145.30428 | 36201 ft | 387 kts | 314° |
| 2026-04-28 07:40 | -40.98686 | 145.25705 | 36200 ft | 385 kts | 313° |
| 2026-04-28 07:40 | -40.94583 | 145.21016 | 36201 ft | 382 kts | 313° |
| 2026-04-28 07:41 | -40.90504 | 145.16356 | 36199 ft | 382 kts | 313° |
| 2026-04-28 07:41 | -40.86257 | 145.11517 | 36200 ft | 383 kts | 313° |
| 2026-04-28 07:42 | -40.82139 | 145.06848 | 36199 ft | 383 kts | 313° |
| 2026-04-28 07:42 | -40.78066 | 145.02298 | 36199 ft | 384 kts | 314° |
| 2026-04-28 07:43 | -40.73976 | 144.97740 | 36199 ft | 385 kts | 314° |
| 2026-04-28 07:43 | -40.69907 | 144.93208 | 36199 ft | 384 kts | 314° |
| 2026-04-28 07:44 | -40.65822 | 144.88667 | 36203 ft | 385 kts | 314° |
| 2026-04-28 07:44 | -40.61705 | 144.84099 | 36210 ft | 385 kts | 314° |
| 2026-04-28 07:45 | -40.57616 | 144.79567 | 36222 ft | 385 kts | 314° |
| 2026-04-28 07:45 | -40.53539 | 144.75053 | 36235 ft | 385 kts | 314° |
| 2026-04-28 07:46 | -40.49445 | 144.70529 | 36245 ft | 385 kts | 314° |
| 2026-04-28 07:46 | -40.45335 | 144.65997 | 36250 ft | 385 kts | 314° |
| 2026-04-28 07:47 | -40.41230 | 144.61476 | 36253 ft | 385 kts | 314° |
| 2026-04-28 07:47 | -40.37146 | 144.56984 | 36253 ft | 384 kts | 314° |
| 2026-04-28 07:48 | -40.33040 | 144.52478 | 36254 ft | 385 kts | 314° |
| 2026-04-28 07:48 | -40.28926 | 144.47969 | 36254 ft | 385 kts | 314° |
| 2026-04-28 07:49 | -40.24834 | 144.43492 | 36253 ft | 385 kts | 314° |
| 2026-04-28 07:49 | -40.20724 | 144.39000 | 36254 ft | 384 kts | 314° |
| 2026-04-28 07:50 | -40.16621 | 144.34531 | 36255 ft | 384 kts | 314° |
| 2026-04-28 07:50 | -40.12511 | 144.30058 | 36254 ft | 384 kts | 314° |
| 2026-04-28 07:51 | -40.08384 | 144.25568 | 36255 ft | 393 kts | 315° |
| 2026-04-28 07:51 | -40.04178 | 144.21004 | 36254 ft | 394 kts | 315° |
| 2026-04-28 07:52 | -39.99955 | 144.16431 | 36253 ft | 394 kts | 315° |
| 2026-04-28 07:52 | -39.95723 | 144.11856 | 36254 ft | 394 kts | 315° |
| 2026-04-28 07:53 | -39.91512 | 144.07307 | 36253 ft | 394 kts | 314° |
| 2026-04-28 07:53 | -39.87306 | 144.02773 | 36254 ft | 395 kts | 315° |
| 2026-04-28 07:54 | -39.83058 | 143.98204 | 36254 ft | 395 kts | 314° |
| 2026-04-28 07:54 | -39.78837 | 143.93666 | 36254 ft | 394 kts | 314° |
| 2026-04-28 07:55 | -39.74618 | 143.89142 | 36253 ft | 395 kts | 314° |
| 2026-04-28 07:55 | -39.70377 | 143.84599 | 36253 ft | 395 kts | 314° |
| 2026-04-28 07:56 | -39.66163 | 143.80093 | 36254 ft | 395 kts | 315° |
| 2026-04-28 07:56 | -39.61933 | 143.75580 | 36253 ft | 395 kts | 314° |
| 2026-04-28 07:57 | -39.57690 | 143.71056 | 36254 ft | 395 kts | 314° |
| 2026-04-28 07:57 | -39.53460 | 143.66557 | 36253 ft | 395 kts | 314° |
| 2026-04-28 07:58 | -39.49249 | 143.62082 | 36253 ft | 395 kts | 314° |
| 2026-04-28 07:58 | -39.45001 | 143.57577 | 36253 ft | 395 kts | 314° |
| 2026-04-28 07:59 | -39.40759 | 143.53087 | 36253 ft | 395 kts | 314° |
| 2026-04-28 07:59 | -39.36539 | 143.48625 | 36253 ft | 395 kts | 314° |
| 2026-04-28 08:00 | -39.32288 | 143.44138 | 36253 ft | 395 kts | 314° |
| 2026-04-28 08:00 | -39.28052 | 143.39676 | 36254 ft | 395 kts | 314° |
| 2026-04-28 08:01 | -39.23868 | 143.35280 | 36252 ft | 386 kts | 314° |
| 2026-04-28 08:01 | -39.19710 | 143.30910 | 36254 ft | 385 kts | 315° |
| 2026-04-28 08:02 | -39.15582 | 143.26578 | 36254 ft | 385 kts | 315° |
| 2026-04-28 08:02 | -39.11409 | 143.22209 | 36254 ft | 385 kts | 315° |
| 2026-04-28 08:03 | -39.07254 | 143.17864 | 36253 ft | 385 kts | 315° |
| 2026-04-28 08:03 | -39.03083 | 143.13510 | 36253 ft | 385 kts | 315° |
| 2026-04-28 08:04 | -38.98980 | 143.09232 | 36254 ft | 384 kts | 315° |
| 2026-04-28 08:04 | -38.94850 | 143.04935 | 36244 ft | 382 kts | 315° |
| 2026-04-28 08:05 | -38.90738 | 143.00670 | 36133 ft | 381 kts | 316° |
| 2026-04-28 08:05 | -38.86471 | 142.96616 | 36059 ft | 383 kts | 317° |
| 2026-04-28 08:06 | -38.82185 | 142.92583 | 36026 ft | 384 kts | 317° |
| 2026-04-28 08:06 | -38.77882 | 142.88547 | 36015 ft | 385 kts | 317° |
| 2026-04-28 08:07 | -38.73550 | 142.84494 | 36011 ft | 387 kts | 317° |
| 2026-04-28 08:07 | -38.69217 | 142.80447 | 36010 ft | 388 kts | 318° |
| 2026-04-28 08:08 | -38.64881 | 142.76407 | 36011 ft | 388 kts | 318° |
| 2026-04-28 08:08 | -38.60507 | 142.72337 | 36011 ft | 389 kts | 318° |
| 2026-04-28 08:09 | -38.56123 | 142.68265 | 36011 ft | 389 kts | 318° |
| 2026-04-28 08:09 | -38.51757 | 142.64214 | 36011 ft | 389 kts | 318° |
| 2026-04-28 08:10 | -38.47417 | 142.60194 | 36011 ft | 389 kts | 318° |
| 2026-04-28 08:10 | -38.43039 | 142.56143 | 36011 ft | 389 kts | 318° |
| 2026-04-28 08:11 | -38.38665 | 142.52106 | 36011 ft | 389 kts | 318° |
| 2026-04-28 08:11 | -38.34298 | 142.48077 | 36011 ft | 388 kts | 318° |
| 2026-04-28 08:12 | -38.29928 | 142.44055 | 36011 ft | 389 kts | 318° |
| 2026-04-28 08:12 | -38.25533 | 142.40013 | 36011 ft | 389 kts | 318° |
| 2026-04-28 08:13 | -38.21157 | 142.35997 | 36011 ft | 389 kts | 318° |
| 2026-04-28 08:13 | -38.16790 | 142.31996 | 36012 ft | 389 kts | 318° |
| 2026-04-28 08:14 | -38.12392 | 142.27971 | 36011 ft | 389 kts | 319° |
| 2026-04-28 08:14 | -38.07995 | 142.23953 | 36011 ft | 389 kts | 318° |
| 2026-04-28 08:15 | -38.03606 | 142.19949 | 36011 ft | 389 kts | 318° |
| 2026-04-28 08:15 | -37.99217 | 142.15950 | 36011 ft | 389 kts | 318° |
| 2026-04-28 08:16 | -37.94835 | 142.11966 | 36011 ft | 390 kts | 318° |
| 2026-04-28 08:16 | -37.90423 | 142.07958 | 36011 ft | 389 kts | 318° |
| 2026-04-28 08:17 | -37.86043 | 142.03986 | 36011 ft | 389 kts | 318° |
| 2026-04-28 08:17 | -37.81629 | 141.99989 | 36010 ft | 390 kts | 318° |
| 2026-04-28 08:18 | -37.77242 | 141.96021 | 36011 ft | 389 kts | 318° |
| 2026-04-28 08:18 | -37.72855 | 141.92059 | 36011 ft | 389 kts | 318° |
| 2026-04-28 08:19 | -37.68436 | 141.88075 | 36011 ft | 389 kts | 318° |
| 2026-04-28 08:19 | -37.64053 | 141.84132 | 36011 ft | 389 kts | 318° |
| 2026-04-28 08:20 | -37.59649 | 141.80171 | 36088 ft | 389 kts | 319° |
| 2026-04-28 08:20 | -37.55254 | 141.76227 | 36174 ft | 388 kts | 319° |
| 2026-04-28 08:21 | -37.50873 | 141.72302 | 36220 ft | 388 kts | 319° |
| 2026-04-28 08:21 | -37.46492 | 141.68381 | 36240 ft | 388 kts | 318° |
| 2026-04-28 08:22 | -37.42111 | 141.64465 | 36249 ft | 388 kts | 318° |
| 2026-04-28 08:22 | -37.37717 | 141.60544 | 36252 ft | 388 kts | 318° |
| 2026-04-28 08:23 | -37.33321 | 141.56628 | 36253 ft | 388 kts | 318° |
| 2026-04-28 08:23 | -37.28952 | 141.52742 | 36254 ft | 388 kts | 318° |
| 2026-04-28 08:24 | -37.24539 | 141.48825 | 36254 ft | 388 kts | 318° |
| 2026-04-28 08:24 | -37.20148 | 141.44930 | 36254 ft | 388 kts | 318° |
| 2026-04-28 08:25 | -37.15743 | 141.41028 | 36254 ft | 388 kts | 318° |
| 2026-04-28 08:26 | -37.09156 | 141.35207 | 36254 ft | 388 kts | 318° |
| 2026-04-28 08:26 | -37.04774 | 141.31345 | 36255 ft | 385 kts | 319° |
| 2026-04-28 08:27 | -37.00399 | 141.27490 | 36254 ft | 383 kts | 319° |
| 2026-04-28 08:27 | -36.96078 | 141.23689 | 36254 ft | 381 kts | 318° |
| 2026-04-28 08:28 | -36.91753 | 141.19887 | 36254 ft | 380 kts | 318° |
| 2026-04-28 08:28 | -36.87455 | 141.16112 | 36254 ft | 380 kts | 318° |
| 2026-04-28 08:29 | -36.83144 | 141.12334 | 36254 ft | 379 kts | 318° |
| 2026-04-28 08:29 | -36.78834 | 141.08562 | 36253 ft | 380 kts | 318° |
| 2026-04-28 08:30 | -36.74526 | 141.04797 | 36253 ft | 381 kts | 318° |
| 2026-04-28 08:30 | -36.70172 | 141.00998 | 36253 ft | 381 kts | 318° |
| 2026-04-28 08:31 | -36.65842 | 140.97224 | 36253 ft | 382 kts | 318° |
| 2026-04-28 08:31 | -36.61492 | 140.93439 | 36253 ft | 382 kts | 319° |
| 2026-04-28 08:32 | -36.57113 | 140.89635 | 36253 ft | 383 kts | 318° |
| 2026-04-28 08:32 | -36.52751 | 140.85847 | 36254 ft | 384 kts | 319° |
| 2026-04-28 08:33 | -36.48385 | 140.82066 | 36254 ft | 384 kts | 318° |
| 2026-04-28 08:33 | -36.44080 | 140.78220 | 36253 ft | 381 kts | 316° |
| 2026-04-28 08:34 | -36.40048 | 140.73955 | 36254 ft | 378 kts | 311° |
| 2026-04-28 08:34 | -36.36391 | 140.69325 | 36254 ft | 376 kts | 307° |
| 2026-04-28 08:35 | -36.33101 | 140.64374 | 36254 ft | 374 kts | 304° |
| 2026-04-28 08:35 | -36.29875 | 140.59314 | 36254 ft | 374 kts | 304° |
| 2026-04-28 08:36 | -36.26659 | 140.54260 | 36253 ft | 374 kts | 304° |
| 2026-04-28 08:36 | -36.23462 | 140.49234 | 36254 ft | 374 kts | 304° |
| 2026-04-28 08:37 | -36.20248 | 140.44183 | 36254 ft | 374 kts | 304° |
| 2026-04-28 08:37 | -36.17023 | 140.39121 | 36254 ft | 374 kts | 304° |
| 2026-04-28 08:38 | -36.13824 | 140.34106 | 36256 ft | 374 kts | 305° |
| 2026-04-28 08:38 | -36.10598 | 140.29053 | 36254 ft | 374 kts | 305° |
| 2026-04-28 08:39 | -36.07390 | 140.24042 | 36253 ft | 374 kts | 305° |
| 2026-04-28 08:39 | -36.04149 | 140.18985 | 36253 ft | 374 kts | 305° |
| 2026-04-28 08:40 | -36.00912 | 140.13943 | 36253 ft | 374 kts | 305° |
| 2026-04-28 08:40 | -35.97660 | 140.08885 | 36253 ft | 374 kts | 305° |
| 2026-04-28 08:41 | -35.94419 | 140.03853 | 36253 ft | 374 kts | 304° |
| 2026-04-28 08:41 | -35.91185 | 139.98839 | 36254 ft | 374 kts | 304° |
| 2026-04-28 08:42 | -35.87944 | 139.93819 | 36254 ft | 375 kts | 304° |
| 2026-04-28 08:42 | -35.84716 | 139.88826 | 36186 ft | 375 kts | 304° |
| 2026-04-28 08:42 | -35.83071 | 139.86287 | 35909 ft | 374 kts | 304° |
| 2026-04-28 08:43 | -35.81457 | 139.83797 | 35451 ft | 372 kts | 304° |
| 2026-04-28 08:43 | -35.79856 | 139.81326 | 34824 ft | 371 kts | 304° |
| 2026-04-28 08:43 | -35.78250 | 139.78851 | 34103 ft | 371 kts | 304° |
| 2026-04-28 08:43 | -35.76652 | 139.76390 | 33337 ft | 373 kts | 304° |
| 2026-04-28 08:44 | -35.75015 | 139.73865 | 32522 ft | 375 kts | 305° |
| 2026-04-28 08:44 | -35.73405 | 139.71388 | 31702 ft | 378 kts | 305° |
| 2026-04-28 08:44 | -35.71746 | 139.68840 | 30822 ft | 382 kts | 305° |
| 2026-04-28 08:44 | -35.70100 | 139.66309 | 29904 ft | 386 kts | 305° |
| 2026-04-28 08:45 | -35.68404 | 139.63705 | 28924 ft | 390 kts | 305° |
| 2026-04-28 08:45 | -35.66710 | 139.61107 | 27908 ft | 396 kts | 305° |
| 2026-04-28 08:45 | -35.64984 | 139.58464 | 27043 ft | 396 kts | 305° |
| 2026-04-28 08:45 | -35.63287 | 139.55865 | 26390 ft | 391 kts | 305° |
| 2026-04-28 08:46 | -35.61583 | 139.53262 | 25731 ft | 387 kts | 305° |
| 2026-04-28 08:46 | -35.59918 | 139.50720 | 25071 ft | 384 kts | 305° |
| 2026-04-28 08:46 | -35.58267 | 139.48198 | 24416 ft | 380 kts | 305° |
| 2026-04-28 08:46 | -35.56618 | 139.45680 | 23764 ft | 377 kts | 305° |
| 2026-04-28 08:47 | -35.54968 | 139.43162 | 23110 ft | 374 kts | 305° |
| 2026-04-28 08:47 | -35.53356 | 139.40703 | 22440 ft | 373 kts | 305° |
| 2026-04-28 08:47 | -35.51739 | 139.38238 | 21774 ft | 371 kts | 305° |
| 2026-04-28 08:47 | -35.50121 | 139.35776 | 21111 ft | 369 kts | 305° |
| 2026-04-28 08:48 | -35.48518 | 139.33337 | 20456 ft | 369 kts | 306° |
| 2026-04-28 08:48 | -35.46915 | 139.30901 | 19792 ft | 368 kts | 306° |
| 2026-04-28 08:48 | -35.45300 | 139.28445 | 19124 ft | 368 kts | 306° |
| 2026-04-28 08:48 | -35.43660 | 139.26059 | 18465 ft | 369 kts | 311° |
| 2026-04-28 08:49 | -35.41715 | 139.23994 | 17811 ft | 372 kts | 321° |
| 2026-04-28 08:49 | -35.39487 | 139.22386 | 17172 ft | 376 kts | 330° |
| 2026-04-28 08:49 | -35.37063 | 139.21158 | 16540 ft | 376 kts | 334° |
| 2026-04-28 08:49 | -35.34629 | 139.20030 | 15911 ft | 375 kts | 335° |
| 2026-04-28 08:50 | -35.32218 | 139.18926 | 15292 ft | 374 kts | 335° |
| 2026-04-28 08:50 | -35.29792 | 139.17810 | 14671 ft | 372 kts | 335° |
| 2026-04-28 08:50 | -35.27389 | 139.16702 | 14056 ft | 370 kts | 335° |
| 2026-04-28 08:50 | -35.25000 | 139.15599 | 13504 ft | 365 kts | 336° |
| 2026-04-28 08:51 | -35.22674 | 139.14525 | 13219 ft | 357 kts | 336° |
| 2026-04-28 08:51 | -35.20338 | 139.13448 | 12712 ft | 354 kts | 336° |
| 2026-04-28 08:51 | -35.18047 | 139.12384 | 11764 ft | 363 kts | 336° |
| 2026-04-28 08:51 | -35.15694 | 139.11296 | 11261 ft | 357 kts | 336° |
| 2026-04-28 08:52 | -35.13417 | 139.10248 | 10909 ft | 348 kts | 336° |
| 2026-04-28 08:52 | -35.11185 | 139.09221 | 10684 ft | 336 kts | 336° |
| 2026-04-28 08:52 | -35.09033 | 139.08231 | 10465 ft | 325 kts | 335° |
| 2026-04-28 08:52 | -35.07036 | 139.07059 | 10251 ft | 311 kts | 325° |
| 2026-04-28 08:53 | -35.05343 | 139.05518 | 10065 ft | 298 kts | 316° |
| 2026-04-28 08:53 | -35.03830 | 139.03839 | 9786 ft | 291 kts | 314° |
| 2026-04-28 08:53 | -35.02380 | 139.02177 | 9479 ft | 287 kts | 314° |
| 2026-04-28 08:53 | -35.00925 | 139.00514 | 8991 ft | 290 kts | 314° |
| 2026-04-28 08:54 | -34.99433 | 138.98822 | 8509 ft | 291 kts | 314° |
| 2026-04-28 08:54 | -34.97960 | 138.97163 | 8077 ft | 292 kts | 314° |
| 2026-04-28 08:54 | -34.96457 | 138.95476 | 7654 ft | 291 kts | 314° |
| 2026-04-28 08:54 | -34.94975 | 138.93816 | 7247 ft | 291 kts | 314° |
| 2026-04-28 08:55 | -34.93481 | 138.92143 | 6842 ft | 290 kts | 315° |
| 2026-04-28 08:55 | -34.92020 | 138.90512 | 6451 ft | 282 kts | 315° |
| 2026-04-28 08:55 | -34.90608 | 138.88936 | 6072 ft | 273 kts | 315° |
| 2026-04-28 08:55 | -34.89229 | 138.87398 | 5705 ft | 266 kts | 315° |
| 2026-04-28 08:56 | -34.87912 | 138.85930 | 5508 ft | 247 kts | 315° |
| 2026-04-28 08:56 | -34.86663 | 138.84540 | 5404 ft | 235 kts | 315° |
| 2026-04-28 08:56 | -34.85469 | 138.83208 | 5156 ft | 233 kts | 315° |
| 2026-04-28 08:56 | -34.84271 | 138.81869 | 4816 ft | 234 kts | 315° |
| 2026-04-28 08:57 | -34.83056 | 138.80510 | 4248 ft | 244 kts | 315° |
| 2026-04-28 08:57 | -34.81818 | 138.79131 | 3870 ft | 238 kts | 315° |
| 2026-04-28 08:57 | -34.80677 | 138.77713 | 3782 ft | 224 kts | 299° |
| 2026-04-28 08:57 | -34.80253 | 138.75993 | 3783 ft | 209 kts | 265° |
| 2026-04-28 08:58 | -34.80580 | 138.74350 | 3793 ft | 195 kts | 243° |
| 2026-04-28 08:58 | -34.81239 | 138.73000 | 3859 ft | 176 kts | 233° |
| 2026-04-28 08:58 | -34.81971 | 138.71878 | 3643 ft | 163 kts | 228° |
| 2026-04-28 08:58 | -34.82687 | 138.70866 | 3426 ft | 151 kts | 227° |
| 2026-04-28 08:59 | -34.83346 | 138.69934 | 3225 ft | 140 kts | 228° |
| 2026-04-28 08:59 | -34.83968 | 138.69045 | 3081 ft | 137 kts | 228° |
| 2026-04-28 08:59 | -34.84585 | 138.68153 | 2913 ft | 136 kts | 228° |
| 2026-04-28 08:59 | -34.85190 | 138.67273 | 2738 ft | 135 kts | 228° |
| 2026-04-28 09:00 | -34.85790 | 138.66396 | 2561 ft | 135 kts | 228° |
| 2026-04-28 09:00 | -34.86399 | 138.65505 | 2379 ft | 135 kts | 228° |
| 2026-04-28 09:00 | -34.86997 | 138.64629 | 2197 ft | 134 kts | 228° |
| 2026-04-28 09:00 | -34.87587 | 138.63766 | 2016 ft | 134 kts | 228° |
| 2026-04-28 09:01 | -34.88186 | 138.62889 | 1831 ft | 133 kts | 228° |
| 2026-04-28 09:01 | -34.88782 | 138.62019 | 1649 ft | 133 kts | 228° |
| 2026-04-28 09:01 | -34.89368 | 138.61165 | 1471 ft | 132 kts | 228° |
| 2026-04-28 09:01 | -34.89959 | 138.60303 | 1295 ft | 132 kts | 228° |
| 2026-04-28 09:02 | -34.90551 | 138.59439 | 1119 ft | 132 kts | 228° |
| 2026-04-28 09:02 | -34.91141 | 138.58578 | 945 ft | 131 kts | 228° |
| 2026-04-28 09:02 | -34.91727 | 138.57724 | 771 ft | 131 kts | 228° |
| 2026-04-28 09:02 | -34.92308 | 138.56879 | 599 ft | 131 kts | 228° |
| 2026-04-28 09:03 | -34.92897 | 138.56021 | 420 ft | 130 kts | 228° |
| 2026-04-28 09:03 | -34.93472 | 138.55183 | 226 ft | 130 kts | 228° |
| 2026-04-28 09:03 | -34.94051 | 138.54340 | 99 ft | 129 kts | 228° |
| 2026-04-28 09:03 | -34.94613 | 138.53528 | 35 ft | 111 kts | 229° |
| 2026-04-28 09:04 | -34.94957 | 138.53027 | 32 ft | 48 kts | 231° |
| 2026-04-28 09:04 | -34.95158 | 138.52731 | 32 ft | 43 kts | 229° |
| 2026-04-28 09:04 | -34.95218 | 138.52539 | 32 ft | 22 kts | 311° |
| 2026-04-28 09:04 | -34.95110 | 138.52457 | 32 ft | 0 kts | 345° |
| 2026-04-28 09:05 | -34.95084 | 138.52449 | 32 ft | 12 kts | 354° |
| 2026-04-28 09:05 | -34.94970 | 138.52508 | 32 ft | 20 kts | 38° |
| 2026-04-28 09:05 | -34.94858 | 138.52614 | 32 ft | 20 kts | 39° |
| 2026-04-28 09:06 | -34.94743 | 138.52724 | 32 ft | 20 kts | 37° |
| 2026-04-28 09:06 | -34.94626 | 138.52832 | 32 ft | 21 kts | 37° |
| 2026-04-28 09:06 | -34.94509 | 138.52943 | 32 ft | 21 kts | 37° |